Hier eine tabellarische Übersicht über die aktuellen Wetterdaten des 14.11.2019.

Datum Zeit 2m Temperatur
in °C
2m Feuchtigkeit
in %
2m Taupunkt
in °C
5cm Temperatur
in °C
Helligkeit
in kLux
Sonnenscheindauer
in hh:mm
Windgeschwindigkeit
in km/h
Windrichtung
in °
Regen
in l/m²
14.11.2019 --- 00:00 3.8 95.3 3.1 2.0 0.000 0.0 205.0 0.0
14.11.2019 --- 00:03 3.7 95.4 3.0 2.0 0.000 0.0 205.0 0.0
14.11.2019 --- 00:06 3.7 95.5 3.0 2.2 0.000 0.0 205.0 0.0
14.11.2019 --- 00:09 3.7 95.6 3.1 2.3 0.000 0.0 205.0 0.0
14.11.2019 --- 00:15 3.7 95.7 3.1 2.5 0.000 0.0 200.0 0.0
14.11.2019 --- 00:18 3.7 95.7 3.1 2.5 0.000 0.0 205.0 0.0
14.11.2019 --- 00:21 3.7 95.7 3.1 2.5 0.000 0.0 205.0 0.0
14.11.2019 --- 00:24 3.7 95.7 3.1 2.6 0.000 0.0 205.0 0.0
14.11.2019 --- 00:27 3.7 95.7 3.1 2.5 0.000 0.0 205.0 0.0
14.11.2019 --- 00:30 3.7 95.7 3.1 2.5 0.000 0.0 205.0 0.0
14.11.2019 --- 00:33 3.7 95.6 3.1 2.5 0.000 0.6 205.0 0.0
14.11.2019 --- 00:36 3.7 95.6 3.1 2.5 0.000 0.0 205.0 0.0
14.11.2019 --- 00:39 3.7 95.6 3.1 2.5 0.000 0.0 205.0 0.0
14.11.2019 --- 00:42 3.7 95.6 3.1 2.5 0.000 0.0 205.0 0.0
14.11.2019 --- 00:45 3.7 95.7 3.1 2.6 0.000 5.8 205.0 0.0
14.11.2019 --- 00:48 3.7 95.6 3.1 2.7 0.000 4.4 205.0 0.0
14.11.2019 --- 00:51 3.7 95.6 3.1 2.6 0.000 0.5 205.0 0.0
14.11.2019 --- 00:54 3.8 95.6 3.2 2.8 0.000 0.0 205.0 0.0
14.11.2019 --- 00:57 3.7 95.6 3.1 2.9 0.000 0.0 205.0 0.0
14.11.2019 --- 01:00 3.7 95.6 3.1 2.8 0.000 0.0 205.0 0.0
14.11.2019 --- 01:03 3.8 95.5 3.1 2.8 0.000 0.1 205.0 0.0
14.11.2019 --- 01:06 3.8 95.5 3.1 2.8 0.000 0.1 205.0 0.0
14.11.2019 --- 01:09 3.8 95.5 3.1 2.7 0.000 0.0 205.0 0.0
14.11.2019 --- 01:15 3.7 95.3 3.0 2.7 0.000 0.0 205.0 0.0
14.11.2019 --- 01:18 3.7 95.3 3.0 2.7 0.000 0.0 205.0 0.0
14.11.2019 --- 01:21 3.7 95.3 3.0 2.7 0.000 0.0 205.0 0.0
14.11.2019 --- 01:24 3.7 95.2 3.0 2.7 0.000 0.0 205.0 0.0
14.11.2019 --- 01:27 3.6 95.1 2.9 2.5 0.000 0.0 205.0 0.0
14.11.2019 --- 01:30 3.6 95.1 2.9 2.5 0.000 0.0 205.0 0.0
14.11.2019 --- 01:33 3.5 95.1 2.8 2.5 0.000 0.0 205.0 0.0
14.11.2019 --- 01:36 3.5 95.1 2.8 2.5 0.000 0.0 205.0 0.0
14.11.2019 --- 01:39 3.5 95.2 2.8 2.5 0.000 0.0 205.0 0.0
14.11.2019 --- 01:42 3.4 95.2 2.7 2.3 0.000 0.1 205.0 0.0
14.11.2019 --- 01:45 3.4 95.2 2.7 2.3 0.000 0.0 205.0 0.0
14.11.2019 --- 01:48 3.3 95.2 2.6 2.4 0.000 0.0 205.0 0.0
14.11.2019 --- 01:51 3.3 95.2 2.6 2.4 0.000 0.0 205.0 0.0
14.11.2019 --- 01:54 3.3 95.2 2.6 2.4 0.000 0.5 205.0 0.0
14.11.2019 --- 01:57 3.3 95.2 2.6 2.5 0.000 0.0 205.0 0.0
14.11.2019 --- 02:00 3.2 95.5 2.6 2.5 0.000 0.0 205.0 0.0
14.11.2019 --- 02:03 3.3 95.6 2.7 2.3 0.000 0.0 205.0 0.0
14.11.2019 --- 02:06 3.3 95.7 2.7 2.4 0.000 0.0 205.0 0.0
14.11.2019 --- 02:09 3.3 95.7 2.7 2.4 0.000 0.0 205.0 0.0
14.11.2019 --- 02:15 3.3 95.7 2.7 2.6 0.000 0.0 205.0 0.0
14.11.2019 --- 02:18 3.3 95.7 2.7 2.7 0.000 4.1 210.0 0.0
14.11.2019 --- 02:21 3.4 95.8 2.8 2.7 0.000 4.6 210.0 0.0
14.11.2019 --- 02:24 3.4 95.8 2.8 2.8 0.000 0.1 205.0 0.0
14.11.2019 --- 02:27 3.4 95.7 2.8 2.7 0.000 0.0 205.0 0.0
14.11.2019 --- 02:30 3.5 95.6 2.9 2.7 0.000 0.0 205.0 0.0
14.11.2019 --- 02:33 3.5 95.6 2.9 2.8 0.000 0.3 205.0 0.0
14.11.2019 --- 02:36 3.5 95.6 2.9 2.8 0.000 0.0 205.0 0.0
14.11.2019 --- 02:39 3.5 95.4 2.8 2.6 0.000 0.0 205.0 0.0
14.11.2019 --- 02:42 3.5 95.3 2.8 2.6 0.000 0.0 205.0 0.0
14.11.2019 --- 02:45 3.5 95.3 2.8 2.5 0.000 0.0 205.0 0.0
14.11.2019 --- 02:48 3.4 95.1 2.7 2.5 0.000 0.0 205.0 0.0
14.11.2019 --- 02:51 3.4 95.0 2.7 2.4 0.000 0.0 205.0 0.0
14.11.2019 --- 02:54 3.4 94.9 2.7 2.4 0.000 0.0 205.0 0.0
14.11.2019 --- 02:57 3.4 94.9 2.7 1.8 0.000 0.0 205.0 0.0
14.11.2019 --- 03:00 3.2 94.8 2.4 1.6 0.000 0.0 205.0 0.0
14.11.2019 --- 03:03 3.1 94.7 2.3 1.6 0.000 0.0 205.0 0.0
14.11.2019 --- 03:06 3.0 94.7 2.2 1.3 0.000 0.0 205.0 0.0
14.11.2019 --- 03:09 2.9 94.7 2.1 1.3 0.000 0.0 205.0 0.0
14.11.2019 --- 03:15 2.9 94.7 2.1 0.9 0.000 0.0 205.0 0.0
14.11.2019 --- 03:18 2.7 94.7 1.9 0.7 0.000 0.0 205.0 0.0
14.11.2019 --- 03:21 2.7 94.7 1.9 0.7 0.000 0.0 205.0 0.0
14.11.2019 --- 03:24 2.6 94.9 1.9 0.9 0.000 0.0 205.0 0.0
14.11.2019 --- 03:27 2.6 94.9 1.9 1.2 0.000 0.0 205.0 0.0
14.11.2019 --- 03:30 2.5 95.1 1.8 1.2 0.000 0.0 205.0 0.0
14.11.2019 --- 03:33 2.5 95.1 1.8 1.2 0.000 0.0 205.0 0.0
14.11.2019 --- 03:36 2.5 95.1 1.8 1.2 0.000 0.0 205.0 0.0
14.11.2019 --- 03:39 2.4 95.3 1.7 1.1 0.000 0.0 205.0 0.0
14.11.2019 --- 03:42 2.4 95.3 1.7 1.1 0.000 0.0 205.0 0.0
14.11.2019 --- 03:45 2.3 95.4 1.6 1.1 0.000 0.0 205.0 0.0
14.11.2019 --- 03:48 2.3 95.4 1.6 1.1 0.000 0.0 205.0 0.0
14.11.2019 --- 03:51 2.3 95.5 1.7 1.1 0.000 0.0 205.0 0.0
14.11.2019 --- 03:54 2.3 95.5 1.7 1.1 0.000 0.0 205.0 0.0
14.11.2019 --- 03:57 2.2 95.5 1.6 1.3 0.000 0.0 205.0 0.0
14.11.2019 --- 04:00 2.2 95.5 1.6 1.4 0.000 0.0 205.0 0.0
14.11.2019 --- 04:03 2.2 95.5 1.6 1.5 0.000 0.0 205.0 0.0
14.11.2019 --- 04:06 2.2 95.7 1.6 1.5 0.000 0.0 205.0 0.0
14.11.2019 --- 04:09 2.2 95.7 1.6 1.7 0.000 0.0 205.0 0.0
14.11.2019 --- 04:15 2.2 95.9 1.6 1.8 0.000 0.0 205.0 0.0
14.11.2019 --- 04:18 2.2 95.9 1.6 1.8 0.000 0.0 205.0 0.0
14.11.2019 --- 04:21 2.2 95.9 1.6 1.8 0.000 0.0 205.0 0.0
14.11.2019 --- 04:24 2.2 95.9 1.6 1.8 0.000 1.0 205.0 0.0
14.11.2019 --- 04:27 2.4 96.1 1.8 1.8 0.000 0.4 205.0 0.0
14.11.2019 --- 04:30 2.4 96.1 1.8 2.0 0.000 3.6 205.0 0.0
14.11.2019 --- 04:33 2.4 96.1 1.8 2.0 0.000 1.0 205.0 0.0
14.11.2019 --- 04:36 2.5 96.2 2.0 2.1 0.000 4.4 205.0 0.0
14.11.2019 --- 04:39 2.5 96.2 2.0 2.1 0.000 4.4 205.0 0.0
14.11.2019 --- 04:42 2.5 96.2 2.0 2.1 0.000 0.6 205.0 0.0
14.11.2019 --- 04:45 2.5 96.2 2.0 2.1 0.000 0.0 205.0 0.0
14.11.2019 --- 04:48 2.5 96.1 1.9 2.1 0.000 0.1 205.0 0.0
14.11.2019 --- 04:51 2.5 96.1 1.9 2.1 0.000 0.0 205.0 0.0
14.11.2019 --- 04:54 2.5 96.1 1.9 2.1 0.000 1.4 205.0 0.0
14.11.2019 --- 04:57 2.5 96.1 1.9 2.1 0.000 0.5 205.0 0.0
14.11.2019 --- 05:00 2.5 96.0 1.9 2.1 0.000 0.5 205.0 0.0
14.11.2019 --- 05:03 2.4 96.0 1.8 2.1 0.000 0.0 205.0 0.0
14.11.2019 --- 05:06 2.4 96.0 1.8 2.1 0.000 0.0 205.0 0.0
14.11.2019 --- 05:09 2.4 96.0 1.8 2.1 0.000 0.0 205.0 0.0
14.11.2019 --- 05:15 2.4 96.0 1.8 1.9 0.000 0.0 205.0 0.0
14.11.2019 --- 05:18 2.4 96.0 1.8 1.8 0.000 0.0 205.0 0.0
14.11.2019 --- 05:21 2.4 96.0 1.8 1.7 0.000 0.0 205.0 0.0
14.11.2019 --- 05:24 2.4 96.0 1.8 1.7 0.000 0.0 205.0 0.0
14.11.2019 --- 05:27 2.4 96.0 1.8 1.7 0.000 0.0 205.0 0.0
14.11.2019 --- 05:30 2.4 96.0 1.8 1.6 0.000 0.0 205.0 0.0
14.11.2019 --- 05:33 2.3 96.0 1.7 1.7 0.000 0.0 205.0 0.0
14.11.2019 --- 05:36 2.3 96.0 1.7 1.7 0.000 0.0 205.0 0.0
14.11.2019 --- 05:39 2.3 96.0 1.7 1.8 0.000 0.0 205.0 0.0
14.11.2019 --- 05:42 2.3 96.1 1.7 1.9 0.000 0.0 205.0 0.0
14.11.2019 --- 05:45 2.3 96.1 1.7 1.9 0.000 0.0 205.0 0.0
14.11.2019 --- 05:48 2.4 96.1 1.8 1.9 0.000 0.0 205.0 0.0
14.11.2019 --- 05:51 2.4 96.1 1.8 2.0 0.000 0.0 205.0 0.0
14.11.2019 --- 05:54 2.4 96.1 1.8 2.0 0.000 0.0 205.0 0.0
14.11.2019 --- 05:57 2.4 96.2 1.9 2.0 0.000 0.0 205.0 0.0
14.11.2019 --- 06:00 2.4 96.1 1.8 2.1 0.000 0.0 205.0 0.0
14.11.2019 --- 06:03 2.4 96.1 1.8 2.1 0.000 0.0 205.0 0.0
14.11.2019 --- 06:06 2.4 96.1 1.8 2.1 0.000 0.0 205.0 0.0
14.11.2019 --- 06:09 2.4 96.1 1.8 2.1 0.000 0.0 205.0 0.0
14.11.2019 --- 06:15 2.4 96.1 1.8 2.1 0.000 0.0 205.0 0.0
14.11.2019 --- 06:18 2.4 96.2 1.9 2.1 0.000 0.0 205.0 0.0
14.11.2019 --- 06:21 2.5 96.2 2.0 2.1 0.000 0.0 205.0 0.0
14.11.2019 --- 06:24 2.5 96.2 2.0 2.1 0.000 0.0 205.0 0.0
14.11.2019 --- 06:27 2.5 96.2 2.0 2.1 0.000 0.0 205.0 0.0
14.11.2019 --- 06:30 2.5 96.2 2.0 2.3 0.000 0.0 205.0 0.0
14.11.2019 --- 06:33 2.6 96.3 2.1 2.3 0.000 0.0 205.0 0.0
14.11.2019 --- 06:36 2.6 96.3 2.1 2.2 0.000 0.0 205.0 0.0
14.11.2019 --- 06:39 2.7 96.3 2.2 2.2 0.000 0.0 205.0 0.0
14.11.2019 --- 06:42 2.7 96.2 2.2 2.2 0.000 0.0 205.0 0.0
14.11.2019 --- 06:45 2.7 96.2 2.2 2.3 0.000 0.0 205.0 0.0
14.11.2019 --- 06:48 2.7 96.2 2.2 2.3 0.000 0.0 205.0 0.0
14.11.2019 --- 06:51 2.8 96.1 2.2 2.4 0.000 0.0 205.0 0.0
14.11.2019 --- 06:54 2.8 96.1 2.2 2.4 0.000 0.0 205.0 0.0
14.11.2019 --- 06:57 2.8 96.0 2.2 2.3 0.000 0.0 205.0 0.0
14.11.2019 --- 07:00 2.8 96.0 2.2 2.4 0.000 0.0 205.0 0.0
14.11.2019 --- 07:03 2.8 95.9 2.2 2.4 0.000 0.0 205.0 0.0
14.11.2019 --- 07:06 2.8 95.9 2.2 2.4 0.000 0.0 205.0 0.0
14.11.2019 --- 07:09 2.8 95.9 2.2 2.4 0.000 0.0 205.0 0.0
14.11.2019 --- 07:15 2.9 95.8 2.3 2.5 0.000 0.1 205.0 0.0
14.11.2019 --- 07:18 2.9 95.8 2.3 2.5 0.000 0.0 205.0 0.0
14.11.2019 --- 07:21 2.9 95.8 2.3 2.5 0.000 0.1 205.0 0.0
14.11.2019 --- 07:24 2.9 95.7 2.3 2.6 0.000 0.0 200.0 0.0
14.11.2019 --- 07:27 2.9 95.7 2.3 2.6 0.053 0.0 200.0 0.0
14.11.2019 --- 07:30 3.0 95.7 2.4 2.6 0.053 0.0 200.0 0.0
14.11.2019 --- 07:33 3.0 95.6 2.4 2.6 0.074 00:00 0.0 200.0 0.0
14.11.2019 --- 07:36 3.0 95.6 2.4 2.5 0.074 00:00 0.0 200.0 0.0
14.11.2019 --- 07:39 3.0 95.6 2.4 2.4 0.189 00:00 0.0 200.0 0.0
14.11.2019 --- 07:42 3.1 95.5 2.5 2.4 0.326 00:00 0.0 200.0 0.0
14.11.2019 --- 07:45 3.1 95.5 2.5 2.4 0.326 00:00 0.0 200.0 0.0
14.11.2019 --- 07:48 3.1 95.5 2.5 2.5 3.080 00:03 0.9 200.0 0.0
14.11.2019 --- 07:51 3.2 95.5 2.6 2.5 3.610 00:06 5.0 200.0 0.0
14.11.2019 --- 07:54 3.3 95.4 2.6 2.6 4.210 00:09 4.0 200.0 0.0
14.11.2019 --- 07:57 3.5 95.1 2.8 2.6 4.210 00:12 5.3 200.0 0.0
14.11.2019 --- 08:00 3.6 94.8 2.8 2.6 5.440 00:15 6.3 205.0 0.0
14.11.2019 --- 08:03 3.7 94.6 2.9 2.6 5.970 00:18 5.3 205.0 0.0
14.11.2019 --- 08:06 3.7 94.2 2.9 2.5 6.630 00:21 0.1 205.0 0.0
14.11.2019 --- 08:09 3.9 93.8 3.0 2.5 7.560 00:24 0.6 205.0 0.0
14.11.2019 --- 08:15 4.1 93.0 3.1 2.4 8.580 00:27 0.0 200.0 0.0
14.11.2019 --- 08:18 4.2 92.3 3.1 2.4 9.070 00:30 0.0 200.0 0.0
14.11.2019 --- 08:21 4.2 92.3 3.1 2.4 9.490 00:33 0.1 200.0 0.0
14.11.2019 --- 08:24 4.3 91.4 3.0 2.3 9.920 00:36 0.0 200.0 0.0
14.11.2019 --- 08:27 4.3 91.4 3.0 2.3 10.300 00:39 0.0 200.0 0.0
14.11.2019 --- 08:30 4.3 91.2 3.0 2.3 11.300 00:42 0.0 200.0 0.0
14.11.2019 --- 08:33 4.5 91.4 3.2 2.1 12.000 00:45 0.0 200.0 0.0
14.11.2019 --- 08:36 4.6 91.1 3.3 2.1 12.000 00:48 0.0 200.0 0.0
14.11.2019 --- 08:39 4.8 90.4 3.4 2.2 12.800 00:51 0.0 200.0 0.0
14.11.2019 --- 08:42 5.1 90.1 3.6 2.2 13.300 00:54 0.0 200.0 0.0
14.11.2019 --- 08:45 5.2 89.4 3.6 2.2 14.000 00:57 0.0 200.0 0.0
14.11.2019 --- 08:48 5.4 88.9 3.7 2.5 14.500 01:00 0.0 200.0 0.0
14.11.2019 --- 08:51 5.4 88.9 3.7 2.5 15.700 01:03 0.0 200.0 0.0
14.11.2019 --- 08:54 5.7 88.1 3.9 2.6 16.300 01:06 0.0 205.0 0.0
14.11.2019 --- 08:57 5.7 88.1 3.9 2.6 16.800 01:08 0.0 205.0 0.0
14.11.2019 --- 09:00 5.7 88.1 3.9 2.6 17.200 01:11 0.6 200.0 0.0
14.11.2019 --- 09:03 5.8 87.0 3.8 2.6 17.200 01:15 7.8 200.0 0.0
14.11.2019 --- 09:06 5.8 87.0 3.8 2.8 18.300 01:18 7.2 200.0 0.0
14.11.2019 --- 09:09 5.9 87.0 3.9 2.9 23.300 01:21 8.5 205.0 0.0
14.11.2019 --- 09:15 5.8 87.3 3.9 2.9 24.300 01:23 6.3 200.0 0.0
14.11.2019 --- 09:18 5.7 87.6 3.8 2.9 24.300 01:26 6.3 200.0 0.0
14.11.2019 --- 09:21 5.8 88.0 4.0 2.9 25.900 01:30 0.3 200.0 0.0
14.11.2019 --- 09:24 5.9 87.5 4.0 3.1 26.200 01:33 0.0 200.0 0.0
14.11.2019 --- 09:27 5.9 87.5 4.0 3.2 26.800 01:36 0.0 200.0 0.0
14.11.2019 --- 09:30 6.0 87.4 4.1 3.2 27.100 01:38 5.6 205.0 0.0
14.11.2019 --- 09:33 6.2 87.3 4.3 3.4 0.171 01:38 5.6 205.0 0.0
14.11.2019 --- 09:36 6.2 87.3 4.3 3.4 28.200 01:42 7.0 185.0 0.0
14.11.2019 --- 09:39 6.4 86.3 4.3 3.6 28.200 01:45 11.4 185.0 0.0
14.11.2019 --- 09:42 6.4 86.3 4.3 3.6 28.900 01:48 9.8 185.0 0.0
14.11.2019 --- 09:45 6.6 86.2 4.5 3.6 29.200 01:51 9.8 185.0 0.0
14.11.2019 --- 09:48 6.6 86.2 4.5 3.7 29.600 01:53 9.4 155.0 0.0
14.11.2019 --- 09:51 6.7 85.3 4.4 3.8 29.600 01:57 9.8 165.0 0.0
14.11.2019 --- 09:54 6.7 84.7 4.3 4.0 30.600 02:00 12.3 165.0 0.0
14.11.2019 --- 09:57 6.9 84.6 4.5 4.4 30.800 02:02 11.1 160.0 0.0
14.11.2019 --- 10:00 6.9 84.0 4.4 4.4 30.800 02:06 12.0 160.0 0.0
14.11.2019 --- 10:03 7.1 84.9 4.7 4.6 31.400 02:08 12.0 160.0 0.0
14.11.2019 --- 10:06 7.2 83.5 4.6 4.6 31.700 02:12 12.5 155.0 0.0
14.11.2019 --- 10:09 7.3 82.8 4.6 4.6 31.800 02:15 12.8 150.0 0.0
14.11.2019 --- 10:15 7.5 82.9 4.8 4.6 32.400 02:17 9.8 160.0 0.0
14.11.2019 --- 10:18 7.5 82.9 4.8 4.6 32.400 02:21 14.0 170.0 0.0
14.11.2019 --- 10:21 7.7 80.1 4.5 4.6 32.600 02:23 10.0 175.0 0.0
14.11.2019 --- 10:24 7.6 80.4 4.4 4.6 33.000 02:27 7.9 190.0 0.0
14.11.2019 --- 10:27 7.8 80.5 4.7 4.6 33.300 02:30 9.0 195.0 0.0
14.11.2019 --- 10:30 7.8 80.5 4.7 4.8 33.500 02:32 10.4 200.0 0.0
14.11.2019 --- 10:33 7.9 80.1 4.7 5.4 34.000 02:36 10.8 195.0 0.0
14.11.2019 --- 10:36 7.9 79.5 4.6 5.8 34.200 02:38 12.5 170.0 0.0
14.11.2019 --- 10:39 8.0 79.6 4.7 5.5 34.700 02:42 12.5 170.0 0.0
14.11.2019 --- 10:42 8.1 78.4 4.6 5.6 35.000 02:45 11.8 155.0 0.0
14.11.2019 --- 10:45 8.2 77.9 4.6 5.5 35.100 02:47 11.1 160.0 0.0
14.11.2019 --- 10:48 8.2 77.9 4.6 5.5 35.100 02:51 11.1 160.0 0.0
14.11.2019 --- 10:51 8.5 78.7 5.0 5.5 35.800 02:53 12.5 160.0 0.0
14.11.2019 --- 10:54 8.4 77.1 4.6 5.5 36.100 02:57 14.3 160.0 0.0
14.11.2019 --- 10:57 8.4 76.8 4.6 5.5 36.400 03:00 12.2 160.0 0.0
14.11.2019 --- 11:00 8.3 76.2 4.4 5.5 36.200 03:02 14.4 165.0 0.0
14.11.2019 --- 11:03 8.4 76.8 4.6 5.5 36.300 03:06 10.5 160.0 0.0
14.11.2019 --- 11:06 8.4 76.8 4.6 6.5 36.600 03:08 10.0 185.0 0.0
14.11.2019 --- 11:09 8.4 76.8 4.6 6.9 36.400 03:12 9.7 185.0 0.0
14.11.2019 --- 11:15 8.6 75.4 4.5 7.3 36.400 03:15 13.8 160.0 0.0
14.11.2019 --- 11:18 8.6 74.3 4.3 7.5 36.600 03:17 13.8 160.0 0.0
14.11.2019 --- 11:21 8.6 74.3 4.3 6.8 36.500 03:21 11.8 170.0 0.0
14.11.2019 --- 11:24 8.6 74.3 4.3 6.8 36.500 03:23 7.9 175.0 0.0
14.11.2019 --- 11:27 9.2 74.3 4.9 6.7 0.171 03:23 13.2 160.0 0.0
14.11.2019 --- 11:30 9.1 73.8 4.7 6.6 0.171 03:23 12.0 145.0 0.0
14.11.2019 --- 11:33 9.1 75.3 5.0 6.6 37.000 03:27 10.0 145.0 0.0
14.11.2019 --- 11:36 9.1 75.3 5.0 7.1 37.000 03:30 2.1 150.0 0.0
14.11.2019 --- 11:39 9.1 75.3 5.0 7.6 36.600 03:32 13.1 160.0 0.0
14.11.2019 --- 11:42 9.2 75.7 5.1 7.6 36.600 03:36 11.9 155.0 0.0
14.11.2019 --- 11:45 9.3 75.3 5.2 7.6 36.200 03:38 8.5 155.0 0.0
14.11.2019 --- 11:48 9.3 75.3 5.2 7.6 36.200 03:42 12.8 135.0 0.0
14.11.2019 --- 11:51 9.3 75.3 5.2 8.3 36.200 03:45 13.1 150.0 0.0
14.11.2019 --- 11:54 9.3 75.3 5.2 8.7 0.171 03:45 14.2 160.0 0.0
14.11.2019 --- 11:57 9.3 76.0 5.3 9.4 36.700 03:47 9.6 145.0 0.0
14.11.2019 --- 12:00 9.3 76.0 5.3 9.6 36.200 03:51 11.8 145.0 0.0
14.11.2019 --- 12:03 9.5 75.1 5.3 9.5 36.200 03:53 11.8 145.0 0.0
14.11.2019 --- 12:06 9.5 75.1 5.3 9.3 0.171 03:53 12.6 145.0 0.0
14.11.2019 --- 12:09 9.4 74.3 5.1 9.2 0.171 03:53 12.5 160.0 0.0
14.11.2019 --- 12:15 9.7 74.1 5.3 9.5 36.200 03:57 10.1 160.0 0.0
14.11.2019 --- 12:18 9.7 75.2 5.5 9.5 36.000 04:00 14.1 135.0 0.0
14.11.2019 --- 12:21 9.5 75.4 5.4 9.1 36.000 04:02 14.1 135.0 0.0
14.11.2019 --- 12:24 9.6 75.8 5.5 9.1 36.000 04:05 13.5 115.0 0.0
14.11.2019 --- 12:27 9.7 75.1 5.5 9.0 36.000 04:09 12.0 120.0 0.0
14.11.2019 --- 12:30 9.7 75.1 5.5 8.8 34.400 04:12 11.6 120.0 0.0
14.11.2019 --- 12:33 9.7 75.1 5.5 8.7 34.700 04:15 15.6 125.0 0.0
14.11.2019 --- 12:36 9.5 75.0 5.3 8.5 34.400 04:17 15.6 125.0 0.0
14.11.2019 --- 12:39 9.5 75.0 5.3 8.8 34.300 04:20 15.6 125.0 0.0
14.11.2019 --- 12:42 9.3 75.2 5.1 8.9 34.400 04:24 15.9 110.0 0.0
14.11.2019 --- 12:45 9.5 76.6 5.6 9.4 33.900 04:27 14.3 115.0 0.0
14.11.2019 --- 12:48 9.5 76.6 5.6 9.4 33.900 04:30 13.0 125.0 0.0
14.11.2019 --- 12:51 9.5 76.6 5.6 9.6 32.500 04:32 13.4 150.0 0.0
14.11.2019 --- 12:54 9.5 75.4 5.4 9.5 31.300 04:35 10.6 165.0 0.0
14.11.2019 --- 12:57 9.6 76.5 5.7 9.5 31.900 04:39 13.0 135.0 0.0
14.11.2019 --- 13:00 9.5 74.7 5.2 9.6 32.200 04:42 17.9 135.0 0.0
14.11.2019 --- 13:03 9.4 73.0 4.8 9.5 31.600 04:45 17.9 135.0 0.0
14.11.2019 --- 13:06 9.4 75.3 5.3 9.5 31.100 04:47 13.8 165.0 0.0
14.11.2019 --- 13:09 9.5 75.5 5.4 9.0 28.800 04:50 13.1 140.0 0.0
14.11.2019 --- 13:15 9.4 75.2 5.2 8.3 26.000 04:54 17.9 155.0 0.0
14.11.2019 --- 13:18 9.2 74.3 4.9 8.0 28.700 04:57 14.2 160.0 0.0
14.11.2019 --- 13:21 9.2 74.9 5.0 7.9 31.000 05:00 14.9 150.0 0.0
14.11.2019 --- 13:24 9.2 75.2 5.0 7.7 31.300 05:02 12.1 140.0 0.0
14.11.2019 --- 13:27 9.2 74.5 4.9 7.7 27.200 05:05 14.5 155.0 0.0
14.11.2019 --- 13:30 9.3 74.6 5.0 7.7 24.800 05:09 14.1 165.0 0.0
14.11.2019 --- 13:33 9.3 74.2 4.9 7.1 18.600 05:12 14.1 165.0 0.0
14.11.2019 --- 13:36 9.1 75.0 4.9 7.0 19.700 05:15 14.1 165.0 0.0
14.11.2019 --- 13:39 9.0 74.8 4.8 6.9 24.200 05:17 13.8 155.0 0.0
14.11.2019 --- 13:42 9.0 74.8 4.8 6.9 24.200 05:20 15.1 160.0 0.0
14.11.2019 --- 13:45 9.2 74.3 4.9 6.8 24.500 05:24 15.1 160.0 0.0
14.11.2019 --- 13:48 9.1 73.9 4.7 6.8 17.100 05:27 15.1 160.0 0.0
14.11.2019 --- 13:51 9.1 74.2 4.8 6.5 27.700 05:30 12.5 155.0 0.0
14.11.2019 --- 13:54 9.1 74.2 4.8 6.7 0.172 05:30 13.8 155.0 0.0
14.11.2019 --- 13:57 9.3 73.5 4.8 6.6 12.800 05:30 9.4 145.0 0.0
14.11.2019 --- 14:00 9.2 74.0 4.8 6.6 13.900 05:32 10.8 155.0 0.0
14.11.2019 --- 14:03 9.2 74.0 4.8 6.3 13.800 05:35 14.3 150.0 0.0
14.11.2019 --- 14:06 8.9 74.3 4.6 6.2 12.500 05:35 9.9 150.0 0.0
14.11.2019 --- 14:09 8.9 74.3 4.6 6.1 8.070 05:35 15.2 155.0 0.0
14.11.2019 --- 14:15 8.7 74.8 4.5 5.7 8.070 05:35 10.9 145.0 0.0
14.11.2019 --- 14:18 8.4 75.6 4.3 5.7 9.070 05:35 10.9 145.0 0.0
14.11.2019 --- 14:21 8.4 75.6 4.3 5.6 7.790 05:35 11.6 150.0 0.0
14.11.2019 --- 14:24 8.3 76.5 4.4 5.5 7.790 05:35 11.6 150.0 0.0
14.11.2019 --- 14:27 8.3 76.8 4.5 5.5 7.360 05:35 10.1 155.0 0.0
14.11.2019 --- 14:30 8.2 77.1 4.4 5.5 6.570 05:35 12.5 155.0 0.0
14.11.2019 --- 14:33 8.2 77.1 4.4 5.4 6.570 05:35 8.6 155.0 0.0
14.11.2019 --- 14:36 8.2 77.1 4.4 5.3 6.210 05:35 8.6 155.0 0.0
14.11.2019 --- 14:39 8.1 77.4 4.4 5.3 5.880 05:35 7.9 155.0 0.0
14.11.2019 --- 14:42 8.1 77.8 4.5 5.2 5.530 05:35 8.3 155.0 0.0
14.11.2019 --- 14:45 8.1 77.8 4.5 5.2 5.530 05:35 7.3 155.0 0.0
14.11.2019 --- 14:48 8.0 78.9 4.6 5.0 4.800 05:35 8.4 140.0 0.0
14.11.2019 --- 14:51 8.0 79.7 4.7 5.1 4.300 05:35 7.5 130.0 0.0
14.11.2019 --- 14:54 7.9 80.1 4.7 5.2 4.090 05:35 7.4 130.0 0.0
14.11.2019 --- 14:57 7.9 80.1 4.7 5.0 3.800 05:35 8.4 130.0 0.0
14.11.2019 --- 15:00 7.9 80.1 4.7 5.1 3.530 05:35 11.3 125.0 0.0
14.11.2019 --- 15:03 7.7 80.7 4.6 5.0 3.340 05:35 11.3 130.0 0.0
14.11.2019 --- 15:06 7.7 80.8 4.6 4.9 3.160 05:35 9.4 125.0 0.0
14.11.2019 --- 15:09 7.6 81.3 4.6 4.9 3.130 05:35 6.6 120.0 0.0
14.11.2019 --- 15:15 7.5 81.7 4.6 4.6 4.360 05:35 9.4 120.0 0.0
14.11.2019 --- 15:18 7.5 81.9 4.6 4.5 3.960 05:35 9.4 120.0 0.0
14.11.2019 --- 15:21 7.5 82.3 4.7 4.8 3.780 05:35 9.4 120.0 0.0
14.11.2019 --- 15:24 7.5 82.3 4.7 4.8 3.400 05:35 10.6 115.0 0.0
14.11.2019 --- 15:27 7.4 82.9 4.7 4.8 3.020 05:35 11.3 115.0 0.0
14.11.2019 --- 15:30 7.3 83.2 4.6 4.8 4.360 05:39 11.3 115.0 0.0
14.11.2019 --- 15:33 7.3 83.5 4.7 4.9 4.360 05:42 19.3 120.0 0.0
14.11.2019 --- 15:36 7.3 83.5 4.7 4.8 4.260 05:45 12.8 115.0 0.0
14.11.2019 --- 15:39 7.3 83.9 4.8 4.9 3.450 05:47 13.3 110.0 0.0
14.11.2019 --- 15:42 7.2 84.0 4.7 4.9 3.110 05:50 15.0 110.0 0.0
14.11.2019 --- 15:45 7.2 84.0 4.7 4.9 3.110 05:54 16.9 120.0 0.0
14.11.2019 --- 15:48 7.1 84.2 4.6 4.7 0.670 05:54 13.5 120.0 0.0
14.11.2019 --- 15:51 7.1 84.4 4.7 4.7 0.464 05:54 10.7 120.0 0.0
14.11.2019 --- 15:54 7.1 84.4 4.7 4.6 0.367 05:54 12.6 110.0 0.0
14.11.2019 --- 15:57 7.1 84.4 4.7 4.5 0.367 05:54 10.1 110.0 0.0
14.11.2019 --- 16:00 7.0 84.6 4.6 4.5 0.367 05:54 14.2 115.0 0.0
14.11.2019 --- 16:03 6.9 84.6 4.5 4.3 0.367 05:54 10.2 115.0 0.0
14.11.2019 --- 16:06 6.8 84.9 4.4 4.0 0.367 05:54 13.1 105.0 0.0
14.11.2019 --- 16:09 6.8 84.9 4.4 4.0 0.367 05:54 9.1 110.0 0.0
14.11.2019 --- 16:15 6.5 85.7 4.3 3.6 0.070 05:54 9.8 115.0 0.0
14.11.2019 --- 16:18 6.4 86.0 4.2 3.4 0.022 05:54 11.8 115.0 0.0
14.11.2019 --- 16:21 6.3 86.2 4.2 3.3 0.005 05:54 11.6 115.0 0.0
14.11.2019 --- 16:24 6.2 86.5 4.1 3.3 0.000 05:54 9.2 115.0 0.0
14.11.2019 --- 16:27 6.1 86.8 4.1 3.3 0.000 05:54 9.5 115.0 0.0
14.11.2019 --- 16:30 6.0 87.1 4.0 3.0 0.000 05:54 9.7 115.0 0.0
14.11.2019 --- 16:33 5.9 87.3 4.0 3.0 0.000 05:54 10.3 115.0 0.0
14.11.2019 --- 16:36 5.8 87.4 3.9 2.9 0.000 05:54 9.8 120.0 0.0
14.11.2019 --- 16:39 5.8 87.4 3.9 3.0 0.000 05:54 12.0 115.0 0.0
14.11.2019 --- 16:42 5.8 87.4 3.9 2.8 0.000 05:54 14.0 115.0 0.0
14.11.2019 --- 16:45 5.7 87.9 3.9 2.9 0.000 05:54 14.0 115.0 0.0
14.11.2019 --- 16:48 5.7 87.9 3.9 3.1 0.000 05:54 13.6 115.0 0.0
14.11.2019 --- 16:51 5.7 87.9 3.9 3.0 0.000 05:54 14.5 110.0 0.0
14.11.2019 --- 16:54 5.7 87.9 3.9 3.1 0.189 05:54 13.3 115.0 0.0
14.11.2019 --- 16:57 5.7 87.8 3.8 3.1 0.000 05:54 12.7 115.0 0.0
14.11.2019 --- 17:00 5.7 87.8 3.8 3.1 0.000 05:54 14.5 115.0 0.0
14.11.2019 --- 17:03 5.6 88.0 3.8 3.1 0.000 05:54 16.9 115.0 0.0
14.11.2019 --- 17:06 5.7 87.9 3.9 3.2 0.000 05:54 20.0 115.0 0.0
14.11.2019 --- 17:09 5.7 87.6 3.8 3.3 0.000 05:54 17.9 115.0 0.0
14.11.2019 --- 17:15 5.7 87.5 3.8 3.1 0.000 05:54 17.3 115.0 0.0
14.11.2019 --- 17:18 5.6 87.7 3.7 3.1 0.000 05:54 15.0 115.0 0.0
14.11.2019 --- 17:21 5.6 87.7 3.7 3.1 0.000 05:54 18.1 120.0 0.0
14.11.2019 --- 17:24 5.5 87.7 3.6 3.0 0.000 05:54 18.1 120.0 0.0
14.11.2019 --- 17:27 5.5 87.9 3.7 3.0 0.000 05:54 12.8 120.0 0.0
14.11.2019 --- 17:30 5.4 88.1 3.6 3.0 0.000 05:54 19.7 115.0 0.0
14.11.2019 --- 17:33 5.4 88.3 3.6 3.0 0.000 05:54 17.7 115.0 0.0
14.11.2019 --- 17:36 5.3 88.4 3.5 2.9 0.000 05:54 14.6 115.0 0.0
14.11.2019 --- 17:39 5.3 88.6 3.6 2.8 0.000 05:54 16.4 115.0 0.0
14.11.2019 --- 17:42 5.2 88.8 3.5 2.6 0.000 05:54 15.6 115.0 0.0
14.11.2019 --- 17:45 5.1 89.1 3.5 2.7 0.000 05:54 18.8 115.0 0.0
14.11.2019 --- 17:48 5.1 89.2 3.5 2.6 0.000 05:54 16.5 125.0 0.0
14.11.2019 --- 17:51 5.1 89.4 3.5 2.6 0.000 05:54 14.8 120.0 0.0
14.11.2019 --- 17:54 5.1 89.4 3.5 2.6 0.000 05:54 11.4 115.0 0.0
14.11.2019 --- 17:57 5.0 89.6 3.4 2.6 0.000 05:54 13.8 125.0 0.0
14.11.2019 --- 18:00 5.0 89.6 3.4 2.6 0.000 05:54 14.2 125.0 0.0
14.11.2019 --- 18:03 5.0 89.6 3.4 2.3 0.000 05:54 11.6 115.0 0.0
14.11.2019 --- 18:06 5.0 89.6 3.4 2.4 0.000 05:54 11.3 120.0 0.0
14.11.2019 --- 18:09 4.9 89.9 3.4 2.5 0.000 05:54 14.8 115.0 0.0
14.11.2019 --- 18:15 4.8 90.1 3.3 2.3 0.000 05:54 13.1 110.0 0.0
14.11.2019 --- 18:18 4.7 90.3 3.3 2.2 0.000 05:54 13.1 110.0 0.0
14.11.2019 --- 18:21 4.7 90.4 3.3 2.3 0.000 05:54 13.2 105.0 0.0
14.11.2019 --- 18:24 4.6 90.5 3.2 2.3 0.000 05:54 16.5 105.0 0.0
14.11.2019 --- 18:27 4.6 90.7 3.2 2.3 0.000 05:54 12.7 115.0 0.0
14.11.2019 --- 18:30 4.6 90.9 3.2 2.0 0.000 05:54 13.0 95.0 0.0
14.11.2019 --- 18:33 4.5 91.1 3.2 2.1 0.000 05:54 15.5 110.0 0.0
14.11.2019 --- 18:36 4.5 91.2 3.2 2.0 0.000 05:54 15.5 110.0 0.0
14.11.2019 --- 18:39 4.5 91.6 3.3 2.0 0.000 05:54 14.5 115.0 0.0
14.11.2019 --- 18:42 4.5 91.6 3.3 2.1 0.000 05:54 16.0 110.0 0.0
14.11.2019 --- 18:45 4.5 91.6 3.3 2.1 0.000 05:54 15.0 110.0 0.0
14.11.2019 --- 18:48 4.6 91.6 3.4 2.1 0.000 05:54 16.0 110.0 0.0
14.11.2019 --- 18:51 4.6 91.6 3.4 2.2 0.000 05:54 19.6 115.0 0.0
14.11.2019 --- 18:54 4.6 91.6 3.4 2.2 0.000 05:54 16.4 115.0 0.0
14.11.2019 --- 18:57 4.6 91.6 3.4 2.3 0.000 05:54 16.9 120.0 0.0
14.11.2019 --- 19:00 4.6 91.6 3.4 2.3 0.000 05:54 23.1 115.0 0.0
14.11.2019 --- 19:03 4.6 91.7 3.4 2.4 0.000 05:54 14.7 120.0 0.0
14.11.2019 --- 19:06 4.6 91.4 3.3 2.3 0.000 05:54 12.4 120.0 0.0
14.11.2019 --- 19:09 4.6 91.4 3.3 2.2 0.000 05:54 14.6 115.0 0.0
14.11.2019 --- 19:15 4.6 91.5 3.3 2.2 0.000 05:54 13.6 115.0 0.0
14.11.2019 --- 19:18 4.6 91.5 3.3 2.3 0.000 05:54 16.5 115.0 0.0
14.11.2019 --- 19:21 4.6 91.4 3.3 2.3 0.000 05:54 14.8 130.0 0.0
14.11.2019 --- 19:24 4.6 91.4 3.3 2.1 0.000 05:54 13.0 125.0 0.0
14.11.2019 --- 19:27 4.6 91.4 3.3 2.1 0.000 05:54 14.3 120.0 0.0
14.11.2019 --- 19:30 4.6 91.7 3.4 2.1 0.000 05:54 13.9 125.0 0.0
14.11.2019 --- 19:33 4.6 91.9 3.4 2.2 0.000 05:54 16.6 130.0 0.0
14.11.2019 --- 19:36 4.6 91.9 3.4 2.2 0.000 05:54 16.2 125.0 0.0
14.11.2019 --- 19:39 4.6 92.0 3.4 2.5 0.000 05:54 20.8 120.0 0.0
14.11.2019 --- 19:42 4.6 92.2 3.4 2.4 0.000 05:54 18.0 120.0 0.0
14.11.2019 --- 19:45 4.6 92.2 3.4 2.4 0.000 05:54 20.3 120.0 0.0
14.11.2019 --- 19:48 4.6 92.1 3.4 2.4 0.000 05:54 20.3 120.0 0.0
14.11.2019 --- 19:51 4.6 92.1 3.4 2.4 0.000 05:54 18.0 120.0 0.0
14.11.2019 --- 19:54 4.6 92.4 3.5 2.3 0.000 05:54 20.1 125.0 0.0
14.11.2019 --- 19:57 4.6 92.4 3.5 2.3 0.000 05:54 15.5 125.0 0.0
14.11.2019 --- 20:00 4.6 92.4 3.5 2.5 0.000 05:54 12.6 125.0 0.0
14.11.2019 --- 20:03 4.6 92.4 3.5 2.5 0.000 05:54 19.1 135.0 0.0
14.11.2019 --- 20:06 4.5 93.0 3.5 2.8 0.000 05:54 16.5 125.0 0.0
14.11.2019 --- 20:09 4.5 93.0 3.5 3.1 0.000 05:54 14.6 135.0 0.0
14.11.2019 --- 20:15 4.6 93.2 3.6 3.5 0.000 05:54 23.4 135.0 0.0
14.11.2019 --- 20:18 4.7 93.2 3.7 3.5 0.000 05:54 24.9 135.0 0.0
14.11.2019 --- 20:21 4.6 93.1 3.6 3.5 0.000 05:54 26.5 130.0 0.0
14.11.2019 --- 20:24 4.6 92.9 3.6 3.5 0.000 05:54 28.8 135.0 0.0
14.11.2019 --- 20:27 4.6 92.9 3.6 3.5 0.000 05:54 36.1 115.0 0.0
14.11.2019 --- 20:30 4.5 92.8 3.4 3.5 0.000 05:54 36.1 115.0 0.0
14.11.2019 --- 20:33 4.5 92.9 3.5 3.4 0.000 05:54 24.7 120.0 0.0
14.11.2019 --- 20:36 4.5 92.9 3.5 3.4 0.000 05:54 23.0 130.0 0.0
14.11.2019 --- 20:39 4.4 93.0 3.4 3.2 0.000 05:54 23.0 130.0 0.0
14.11.2019 --- 20:42 4.4 93.0 3.4 3.1 0.000 05:54 24.3 135.0 0.0
14.11.2019 --- 20:45 4.4 93.0 3.4 3.1 0.000 05:54 25.8 120.0 0.0
14.11.2019 --- 20:48 4.4 93.0 3.4 3.2 0.000 05:54 17.9 125.0 0.0
14.11.2019 --- 20:51 4.4 93.0 3.4 3.2 0.000 05:54 20.2 115.0 0.0
14.11.2019 --- 20:54 4.4 93.0 3.4 3.2 0.000 05:54 20.2 115.0 0.0
14.11.2019 --- 20:57 4.4 93.0 3.4 3.3 0.000 05:54 20.3 115.0 0.0
14.11.2019 --- 21:00 4.4 93.0 3.4 3.3 0.000 05:54 20.7 110.0 0.0
14.11.2019 --- 21:03 4.5 92.9 3.5 3.3 0.000 05:54 18.2 115.0 0.0
14.11.2019 --- 21:06 4.5 92.8 3.4 3.5 0.000 05:54 18.2 115.0 0.0
14.11.2019 --- 21:09 4.5 92.7 3.4 3.5 0.000 05:54 23.0 125.0 0.0
14.11.2019 --- 21:15 4.5 92.3 3.4 3.5 0.000 05:54 24.1 115.0 0.0
14.11.2019 --- 21:18 4.5 92.3 3.4 3.6 0.000 05:54 24.1 115.0 0.0
14.11.2019 --- 21:21 4.6 91.9 3.4 3.6 0.000 05:54 24.1 115.0 0.0
14.11.2019 --- 21:24 4.6 91.7 3.4 3.6 0.000 05:54 22.5 125.0 0.0
14.11.2019 --- 21:27 4.6 91.7 3.4 3.6 0.000 05:54 26.5 125.0 0.0
14.11.2019 --- 21:30 4.6 91.7 3.4 3.6 0.000 05:54 30.8 115.0 0.0
14.11.2019 --- 21:33 4.6 91.4 3.3 3.6 0.000 05:54 28.6 115.0 0.0
14.11.2019 --- 21:36 4.6 91.3 3.3 3.6 0.000 05:54 28.6 115.0 0.0
14.11.2019 --- 21:39 4.6 91.3 3.3 3.6 0.000 05:54 28.6 115.0 0.0
14.11.2019 --- 21:42 4.6 90.9 3.2 3.6 0.000 05:54 29.1 120.0 0.0
14.11.2019 --- 21:45 4.6 90.9 3.2 3.5 0.000 05:54 25.9 125.0 0.0
14.11.2019 --- 21:48 4.6 90.9 3.2 3.5 0.000 05:54 24.3 105.0 0.0
14.11.2019 --- 21:51 4.5 90.6 3.1 3.5 0.000 05:54 27.0 115.0 0.0
14.11.2019 --- 21:54 4.4 90.4 3.0 3.4 0.000 05:54 38.7 125.0 0.0
14.11.2019 --- 21:57 4.3 90.4 2.9 3.3 0.000 05:54 27.6 135.0 0.0
14.11.2019 --- 22:00 4.3 90.2 2.8 3.3 0.000 05:54 31.8 135.0 0.0
14.11.2019 --- 22:03 4.2 90.2 2.7 3.3 0.000 05:54 26.2 125.0 0.0
14.11.2019 --- 22:06 4.2 90.1 2.7 3.3 0.000 05:54 29.0 125.0 0.0
14.11.2019 --- 22:09 4.2 90.1 2.7 3.3 0.000 05:54 25.5 125.0 0.0
14.11.2019 --- 22:15 4.1 90.1 2.6 3.1 0.000 05:54 31.4 130.0 0.0
14.11.2019 --- 22:18 4.1 89.9 2.6 3.1 0.000 05:54 28.0 140.0 0.0
14.11.2019 --- 22:21 4.1 89.8 2.6 3.1 0.000 05:54 30.5 135.0 0.0
14.11.2019 --- 22:24 4.0 89.7 2.5 3.0 0.000 05:54 30.2 130.0 0.0
14.11.2019 --- 22:27 4.0 89.8 2.5 3.0 0.000 05:54 29.9 140.0 0.0
14.11.2019 --- 22:30 4.0 90.1 2.5 3.0 0.000 05:54 28.2 140.0 0.0
14.11.2019 --- 22:33 3.9 89.8 2.4 3.0 0.000 05:54 31.3 135.0 0.0
14.11.2019 --- 22:36 3.9 89.8 2.4 3.0 0.000 05:54 25.0 125.0 0.0
14.11.2019 --- 22:39 3.9 90.2 2.4 3.0 0.000 05:54 25.0 125.0 0.0
14.11.2019 --- 22:42 3.9 90.2 2.4 3.0 0.000 05:54 26.4 125.0 0.0
14.11.2019 --- 22:45 3.9 90.2 2.4 3.0 0.000 05:54 27.6 25.0 0.0
14.11.2019 --- 22:48 3.8 90.0 2.3 3.0 0.000 05:54 30.2 125.0 0.0
14.11.2019 --- 22:51 3.8 90.0 2.3 2.9 0.000 05:54 28.5 125.0 0.0
14.11.2019 --- 22:54 3.8 90.0 2.3 2.9 0.000 05:54 28.5 125.0 0.0
14.11.2019 --- 22:57 3.8 89.7 2.3 2.9 0.000 05:54 28.5 125.0 0.0
14.11.2019 --- 23:00 3.8 89.5 2.2 2.9 0.000 05:54 29.5 135.0 0.0
14.11.2019 --- 23:03 3.8 89.5 2.2 2.9 0.000 05:54 28.7 125.0 0.0
14.11.2019 --- 23:06 3.8 89.5 2.2 2.9 0.000 05:54 29.6 140.0 0.0
14.11.2019 --- 23:09 3.8 89.6 2.3 2.9 0.000 05:54 15.6 125.0 0.0
14.11.2019 --- 23:15 3.8 89.8 2.3 2.9 0.000 05:54 18.6 135.0 0.0
14.11.2019 --- 23:18 3.8 89.8 2.3 2.9 0.000 05:54 18.6 135.0 0.0
14.11.2019 --- 23:21 3.8 89.8 2.3 2.9 0.000 05:54 27.2 130.0 0.0
14.11.2019 --- 23:24 3.8 89.8 2.3 2.9 0.000 05:54 25.3 135.0 0.0
14.11.2019 --- 23:27 3.8 88.6 2.1 2.9 0.000 05:54 35.3 145.0 0.0
14.11.2019 --- 23:30 3.9 88.6 2.2 2.9 0.000 05:54 33.7 135.0 0.0
14.11.2019 --- 23:33 3.9 88.6 2.2 2.9 0.000 05:54 29.3 140.0 0.0
14.11.2019 --- 23:36 3.9 88.4 2.2 3.0 0.000 05:54 29.3 140.0 0.0
14.11.2019 --- 23:39 3.9 88.4 2.2 3.0 0.000 05:54 24.6 130.0 0.0
14.11.2019 --- 23:42 3.9 88.4 2.2 3.0 0.000 05:54 25.6 125.0 0.0
14.11.2019 --- 23:45 3.9 88.3 2.1 3.0 0.000 05:54 25.6 125.0 0.0
14.11.2019 --- 23:48 3.9 88.4 2.2 3.0 0.000 05:54 23.8 125.0 0.0
14.11.2019 --- 23:51 3.9 88.5 2.2 3.0 0.000 05:54 22.6 120.0 0.0
14.11.2019 --- 23:54 3.9 88.4 2.2 3.0 0.000 05:54 21.4 120.0 0.0
14.11.2019 --- 23:57 3.9 88.5 2.2 3.0 0.000 05:54 21.0 125.0 0.0